Airfield :
LOGIN :

Register | Disclaimer

   EN    FR    IT 

 










Legend :    VFR   Marginal VFR   IFR   Intensive IFR   Very Intensive IFR
Visi :
Ceiling :
>= 8 km
>= 3000ft
5 to 8 km
1000 to 3000 ft
1500m to 5 km
500 to 1000 ft
800 to 1500m
200 to 500 ft
< 800m
< 200 ft
Symbols :   Thunderstorms  Fog  Heavy snow  Heavy precipitations  Wind > 20 kt
SIGMETs :     Misc.  Thunderstorms  Icing  Turbulence  Mountain Waves  Volcanic Ashes






- Airport Elevation : 285 ft
- IATA code : OZP


LEMO - Sevilla Moron

CURRENT METAR :
  • 251930Z 22012KT CAVOK 20/13 Q1010 NOSIG

EXPIRED METARs :
  • 251900Z 22010KT CAVOK 21/12 Q1010 NOSIG
  • 251830Z 22011KT CAVOK 22/11 Q1009 NOSIG
  • 251800Z 23013KT 200V270 CAVOK 22/11 Q1009 NOSIG
  • 251730Z 23013KT 200V260 CAVOK 23/10 Q1009 NOSIG
  • 251700Z 22013KT 190V260 CAVOK 23/09 Q1009 NOSIG

TAF TAF LEMO
Valid from the 25 at 15:00 until the 26 at 15:00 UTC


251400Z 2515/2615 25012KT 9999 FEW035 TX28/2515Z TN17/2606Z
BECMG 2521/2523 19009KT



MET'MAP, your aeronautical weather chart ! - Copyright ORBIFLY December 2007 - Disclaimer

ORBIFLY MET'MAP TEAM :

Programming & Development : Alexandra Zaïnal
Original concept : Baudouin d'Aumeries
Technical & hardware support : Manuel Goepfert
Assistance : Marc-Olivier Méhu




SOURCES & CREDITS :

   NOAA